createdAt,value
2018-12-29T00:03:38.021Z,128.42
2018-12-29T00:06:06.417Z,125.85
2018-12-29T00:08:34.814Z,127.45
2018-12-29T00:11:03.557Z,127.42
2018-12-29T00:13:32.246Z,115.03
2018-12-29T00:16:00.930Z,110.78
2018-12-29T00:18:29.412Z,127.65
2018-12-29T00:20:58.092Z,122.20
2018-12-29T00:23:26.485Z,129.65
2018-12-29T00:25:55.163Z,114.22
2018-12-29T00:28:43.197Z,118.53
2018-12-29T00:31:11.887Z,131.85
2018-12-29T00:33:40.278Z,111.08
2018-12-29T00:36:08.669Z,125.85
2018-12-29T00:38:37.081Z,113.05
2018-12-29T00:41:05.469Z,107.52
2018-12-29T00:43:33.860Z,113.55
2018-12-29T00:46:02.569Z,126.20
2018-12-29T00:48:31.200Z,108.55
2018-12-29T00:50:59.837Z,116.03
2018-12-29T00:53:28.248Z,110.08
2018-12-29T00:55:56.647Z,116.73
2018-12-29T00:58:25.040Z,94.45
2018-12-29T01:00:53.441Z,97.65
2018-12-29T01:03:22.145Z,104.90
2018-12-29T01:05:50.552Z,114.90
2018-12-29T01:08:18.960Z,104.55
2018-12-29T01:10:47.376Z,102.97
2018-12-29T01:13:15.779Z,109.72
2018-12-29T01:15:44.444Z,107.32
2018-12-29T01:18:13.133Z,121.72
2018-12-29T01:20:41.817Z,118.17
2018-12-29T01:23:10.207Z,131.00
2018-12-29T01:25:57.954Z,122.30
2018-12-29T01:28:26.344Z,116.35
2018-12-29T01:30:54.745Z,116.37
2018-12-29T01:33:23.141Z,94.20
2018-12-29T01:35:51.533Z,120.13
2018-12-29T01:38:19.942Z,117.90
2018-12-29T01:40:48.344Z,115.17
2018-12-29T01:43:16.973Z,114.52
2018-12-29T01:45:45.387Z,113.30
2018-12-29T01:48:33.118Z,113.22
2018-12-29T01:51:01.529Z,125.10
2018-12-29T01:53:29.921Z,122.10
2018-12-29T01:55:58.645Z,118.90
2018-12-29T01:58:46.393Z,119.40
2018-12-29T02:01:14.786Z,103.62
2018-12-29T02:03:43.181Z,121.82
2018-12-29T02:06:11.925Z,110.28
2018-12-29T02:08:40.318Z,116.22
2018-12-29T02:11:08.709Z,110.00
2018-12-29T02:13:37.122Z,107.03
2018-12-29T02:16:05.523Z,106.45
2018-12-29T02:18:33.914Z,111.45
2018-12-29T02:21:02.325Z,101.82
2018-12-29T02:23:30.717Z,108.83
2018-12-29T02:25:59.110Z,113.88
2018-12-29T02:28:27.524Z,107.30
2018-12-29T02:30:55.918Z,119.05
2018-12-29T02:33:43.663Z,116.47
2018-12-29T02:36:31.393Z,106.27
2018-12-29T02:39:00.066Z,107.43
2018-12-29T02:41:28.457Z,108.27
2018-12-29T02:43:57.118Z,100.45
2018-12-29T02:46:25.533Z,123.50
2018-12-29T02:48:53.926Z,104.35
2018-12-29T02:51:22.312Z,99.83
2018-12-29T02:53:50.725Z,106.25
2018-12-29T02:56:19.438Z,102.70
2018-12-29T02:58:47.840Z,104.50
2018-12-29T03:01:16.255Z,118.90
2018-12-29T03:03:44.651Z,102.20
2018-12-29T03:06:13.357Z,114.40
2018-12-29T03:08:42.042Z,110.48
2018-12-29T03:11:10.433Z,98.00
2018-12-29T03:13:38.826Z,98.00
2018-12-29T03:16:07.236Z,101.87
2018-12-29T03:18:35.971Z,101.67
2018-12-29T03:21:04.368Z,121.15
2018-12-29T03:23:32.779Z,106.17
2018-12-29T03:26:01.526Z,111.20
2018-12-29T03:28:29.905Z,119.62
2018-12-29T03:30:58.317Z,118.57
2018-12-29T03:33:26.708Z,118.28
2018-12-29T03:35:55.105Z,101.90
2018-12-29T03:38:23.754Z,111.97
2018-12-29T03:40:52.216Z,102.58
2018-12-29T03:43:20.883Z,109.63
2018-12-29T03:45:49.584Z,108.12
2018-12-29T03:48:19.406Z,107.25
2018-12-29T03:50:47.800Z,104.67
2018-12-29T03:53:16.279Z,111.72
2018-12-29T03:55:44.675Z,102.50
2018-12-29T03:58:13.071Z,115.20
2018-12-29T04:00:41.481Z,109.10
2018-12-29T04:03:09.869Z,94.28
2018-12-29T04:05:38.548Z,100.18
2018-12-29T04:08:06.955Z,106.37
2018-12-29T04:10:35.355Z,106.95
2018-12-29T04:13:03.743Z,101.70
2018-12-29T04:15:32.149Z,103.22
2018-12-29T04:18:00.547Z,115.28
2018-12-29T04:20:28.932Z,99.55
2018-12-29T04:22:57.605Z,108.10
2018-12-29T04:25:26.233Z,99.13
2018-12-29T04:27:54.630Z,102.10
2018-12-29T04:30:23.355Z,87.53
2018-12-29T04:32:51.746Z,106.27
2018-12-29T04:35:20.141Z,107.90
2018-12-29T04:37:48.795Z,94.15
2018-12-29T04:40:36.533Z,99.17
2018-12-29T04:43:04.939Z,103.00
2018-12-29T04:45:33.598Z,102.50
2018-12-29T04:48:01.982Z,81.82
2018-12-29T04:50:30.376Z,94.30
2018-12-29T04:52:58.794Z,100.02
2018-12-29T04:55:27.181Z,105.05
2018-12-29T04:57:55.583Z,103.62
2018-12-29T05:00:24.262Z,93.70
2018-12-29T05:02:52.654Z,98.58
2018-12-29T05:05:21.048Z,105.85
2018-12-29T05:07:49.453Z,99.75
2018-12-29T05:10:17.846Z,99.87
2018-12-29T05:12:46.240Z,101.60
2018-12-29T05:15:14.641Z,98.07
2018-12-29T05:17:43.325Z,108.30
2018-12-29T05:20:11.731Z,105.75
2018-12-29T05:22:40.494Z,100.58
2018-12-29T05:25:08.883Z,99.87
2018-12-29T05:27:37.274Z,96.12
2018-12-29T05:30:07.064Z,105.05
2018-12-29T05:32:35.458Z,98.70
2018-12-29T05:35:03.868Z,95.67
2018-12-29T05:37:32.279Z,102.72
2018-12-29T05:40:00.673Z,108.78
2018-12-29T05:42:29.085Z,96.05
2018-12-29T05:44:57.491Z,101.47
2018-12-29T05:47:26.222Z,106.75
2018-12-29T05:49:54.913Z,112.70
2018-12-29T05:52:23.316Z,111.15
2018-12-29T05:54:51.725Z,108.27
2018-12-29T05:57:20.132Z,99.50
2018-12-29T05:59:48.522Z,93.35
2018-12-29T06:02:16.930Z,106.35
2018-12-29T06:04:45.324Z,101.15
2018-12-29T06:07:13.726Z,94.72
2018-12-29T06:09:42.120Z,99.80
2018-12-29T06:12:10.522Z,90.17
2018-12-29T06:14:38.921Z,103.55
2018-12-29T06:17:07.335Z,116.70
2018-12-29T06:19:36.077Z,92.57
2018-12-29T06:22:04.534Z,93.82
2018-12-29T06:24:33.236Z,93.58
2018-12-29T06:27:01.626Z,89.87
2018-12-29T06:29:30.020Z,93.52
2018-12-29T06:31:58.426Z,81.80
2018-12-29T06:34:26.832Z,85.28
2018-12-29T06:36:55.220Z,89.85
2018-12-29T06:39:23.622Z,91.12
2018-12-29T06:41:52.015Z,91.02
2018-12-29T06:44:20.673Z,94.32
2018-12-29T06:46:49.081Z,91.37
2018-12-29T06:49:17.481Z,92.20
2018-12-29T06:51:45.867Z,87.80
2018-12-29T06:54:14.270Z,94.30
2018-12-29T06:56:42.659Z,88.35
2018-12-29T06:59:11.064Z,89.17
2018-12-29T07:01:39.740Z,91.78
2018-12-29T07:04:08.128Z,95.35
2018-12-29T07:06:36.530Z,86.75
2018-12-29T07:09:06.763Z,85.12
2018-12-29T07:11:35.172Z,92.50
2018-12-29T07:14:03.563Z,91.55
2018-12-29T07:16:32.259Z,90.47
2018-12-29T07:19:00.671Z,92.25
2018-12-29T07:21:29.060Z,93.78
2018-12-29T07:23:57.693Z,80.77
2018-12-29T07:26:26.147Z,99.65
2018-12-29T07:28:54.488Z,95.12
2018-12-29T07:31:22.892Z,80.67
2018-12-29T07:33:51.283Z,100.65
2018-12-29T07:36:19.689Z,90.15
2018-12-29T07:38:48.081Z,103.62
2018-12-29T07:41:16.553Z,82.10
2018-12-29T07:43:45.245Z,91.30
2018-12-29T07:46:13.634Z,83.03
2018-12-29T07:48:42.042Z,92.90
2018-12-29T07:51:10.688Z,91.47
2018-12-29T07:53:39.079Z,86.95
2018-12-29T07:56:07.492Z,100.02
2018-12-29T07:58:36.192Z,89.00
2018-12-29T08:01:04.578Z,86.53
2018-12-29T08:03:32.982Z,86.72
2018-12-29T08:06:01.678Z,79.03
2018-12-29T08:08:30.087Z,83.35
2018-12-29T08:10:58.475Z,77.85
2018-12-29T08:13:26.878Z,81.87
2018-12-29T08:15:55.270Z,85.92
2018-12-29T08:18:23.659Z,78.85
2018-12-29T08:20:52.064Z,85.25
2018-12-29T08:23:20.451Z,85.67
2018-12-29T08:25:48.838Z,74.55
2018-12-29T08:28:17.251Z,78.57
2018-12-29T08:30:45.643Z,86.72
2018-12-29T08:33:14.037Z,82.62
2018-12-29T08:35:42.733Z,84.15
2018-12-29T08:38:11.125Z,81.72
2018-12-29T08:40:39.758Z,86.97
2018-12-29T08:43:08.485Z,94.37
2018-12-29T08:45:37.171Z,84.10
2018-12-29T08:48:05.853Z,78.22
2018-12-29T08:50:34.564Z,85.70
2018-12-29T08:53:02.935Z,88.33
2018-12-29T08:55:31.605Z,86.50
2018-12-29T08:58:00.294Z,73.22
2018-12-29T09:00:28.686Z,81.85
2018-12-29T09:02:57.076Z,78.35
2018-12-29T09:05:25.483Z,79.70
2018-12-29T09:07:53.936Z,92.47
2018-12-29T09:10:22.609Z,88.03
2018-12-29T09:12:51.282Z,83.85
2018-12-29T09:15:19.969Z,85.95
2018-12-29T09:17:48.657Z,79.20
2018-12-29T09:20:17.047Z,88.65
2018-12-29T09:22:45.436Z,95.20
2018-12-29T09:25:14.082Z,89.42
2018-12-29T09:27:42.782Z,117.22
2018-12-29T09:30:11.422Z,107.97
2018-12-29T09:32:39.836Z,102.07
2018-12-29T09:35:08.537Z,109.78
2018-12-29T09:37:36.927Z,84.32
2018-12-29T09:40:06.075Z,86.70
2018-12-29T09:42:34.466Z,87.33
2018-12-29T09:45:02.857Z,85.75
2018-12-29T09:47:31.552Z,92.10
2018-12-29T09:49:59.941Z,92.00
2018-12-29T09:52:28.332Z,96.12
2018-12-29T09:54:56.737Z,82.10
2018-12-29T09:57:25.479Z,92.97
2018-12-29T09:59:53.877Z,92.53
2018-12-29T10:02:22.642Z,87.10
2018-12-29T10:04:51.329Z,91.78
2018-12-29T10:07:19.721Z,93.25
2018-12-29T10:09:48.127Z,91.22
2018-12-29T10:12:16.525Z,103.58
2018-12-29T10:14:45.254Z,102.38
2018-12-29T10:17:13.720Z,99.60
2018-12-29T10:19:42.333Z,103.78
2018-12-29T10:22:10.728Z,114.70
2018-12-29T10:24:39.139Z,117.08
2018-12-29T10:27:07.532Z,119.25
2018-12-29T10:29:35.926Z,116.53
2018-12-29T10:32:04.341Z,125.27
2018-12-29T10:34:32.735Z,114.12
2018-12-29T10:37:01.394Z,115.10
2018-12-29T10:39:30.066Z,120.15
2018-12-29T10:41:58.459Z,140.45
2018-12-29T10:44:26.855Z,127.62
2018-12-29T10:46:55.501Z,121.95
2018-12-29T10:49:23.913Z,126.97
2018-12-29T10:51:52.597Z,123.50
2018-12-29T10:54:21.256Z,126.53
2018-12-29T10:56:49.674Z,110.90
2018-12-29T10:59:18.073Z,124.40
2018-12-29T11:01:46.806Z,118.82
2018-12-29T11:04:15.260Z,128.68
2018-12-29T11:06:43.974Z,111.60
2018-12-29T11:09:12.387Z,134.72
2018-12-29T11:11:40.791Z,117.57
2018-12-29T11:14:09.186Z,120.85
2018-12-29T11:16:38.412Z,115.57
2018-12-29T11:19:06.815Z,124.53
2018-12-29T11:21:35.576Z,103.45
2018-12-29T11:24:03.984Z,131.22
2018-12-29T11:26:32.375Z,123.87
2018-12-29T11:29:00.790Z,121.28
2018-12-29T11:31:29.187Z,149.87
2018-12-29T11:33:57.878Z,126.50
2018-12-29T11:36:26.294Z,121.67
2018-12-29T11:38:54.698Z,130.27
2018-12-29T11:41:24.087Z,126.33
2018-12-29T11:43:52.481Z,124.02
2018-12-29T11:46:20.877Z,125.97
2018-12-29T11:48:49.274Z,126.20
2018-12-29T11:51:18.170Z,124.35
2018-12-29T11:53:46.854Z,119.25
2018-12-29T11:56:15.286Z,116.82
2018-12-29T11:58:43.685Z,107.20
2018-12-29T12:01:12.084Z,112.50
2018-12-29T12:03:40.777Z,111.03
2018-12-29T12:06:09.178Z,127.62
2018-12-29T12:08:37.591Z,103.25
2018-12-29T12:11:05.996Z,114.57
2018-12-29T12:13:34.635Z,120.45
2018-12-29T12:16:03.392Z,115.57
2018-12-29T12:18:32.221Z,115.95
2018-12-29T12:21:00.591Z,109.25
2018-12-29T12:23:29.259Z,121.02
2018-12-29T12:25:57.656Z,117.90
2018-12-29T12:28:26.412Z,119.80
2018-12-29T12:30:54.816Z,132.18
2018-12-29T12:33:23.486Z,132.87
2018-12-29T12:35:52.164Z,110.40
2018-12-29T12:38:20.951Z,115.72
2018-12-29T12:40:49.345Z,104.03
2018-12-29T12:43:18.318Z,119.42
2018-12-29T12:45:46.995Z,120.10
2018-12-29T12:48:15.410Z,113.00
2018-12-29T12:50:44.072Z,110.20
2018-12-29T12:53:12.485Z,113.25
2018-12-29T12:55:41.369Z,114.55
2018-12-29T12:58:10.000Z,104.72
2018-12-29T13:00:38.788Z,118.50
2018-12-29T13:03:07.577Z,118.72
2018-12-29T13:05:35.969Z,97.10
2018-12-29T13:08:04.655Z,103.95
2018-12-29T13:10:33.053Z,102.27
2018-12-29T13:13:01.452Z,113.60
2018-12-29T13:15:30.215Z,106.67
2018-12-29T13:17:58.897Z,94.62
2018-12-29T13:20:27.893Z,97.92
2018-12-29T13:22:56.308Z,103.92
2018-12-29T13:25:26.049Z,101.70
2018-12-29T13:27:54.592Z,102.02
2018-12-29T13:30:23.012Z,117.08
2018-12-29T13:32:51.781Z,98.47
2018-12-29T13:35:20.178Z,103.35
2018-12-29T13:37:48.912Z,102.50
2018-12-29T13:40:17.326Z,101.35
2018-12-29T13:42:45.723Z,104.83
2018-12-29T13:45:14.741Z,111.47
2018-12-29T13:47:43.142Z,93.50
2018-12-29T13:50:11.557Z,100.15
2018-12-29T13:52:40.294Z,101.70
2018-12-29T13:55:08.686Z,94.07
2018-12-29T13:57:37.280Z,98.85
2018-12-29T14:00:07.084Z,96.82
2018-12-29T14:02:35.549Z,98.82
2018-12-29T14:05:04.234Z,100.67
2018-12-29T14:07:32.698Z,96.55
2018-12-29T14:10:01.408Z,95.62
2018-12-29T14:12:29.808Z,93.95
2018-12-29T14:14:58.473Z,102.60
2018-12-29T14:17:26.862Z,93.42
2018-12-29T14:19:55.338Z,86.40
2018-12-29T14:22:23.746Z,88.45
2018-12-29T14:24:52.267Z,99.55
2018-12-29T14:27:20.658Z,87.27
2018-12-29T14:29:49.358Z,94.03
2018-12-29T14:32:18.046Z,91.50
2018-12-29T14:34:46.681Z,84.20
2018-12-29T14:37:15.145Z,81.90
2018-12-29T14:39:43.939Z,76.95
2018-12-29T14:42:12.700Z,75.00
2018-12-29T14:44:41.089Z,72.22
2018-12-29T14:47:09.751Z,88.27
2018-12-29T14:49:38.161Z,94.87
2018-12-29T14:52:06.556Z,83.42
2018-12-29T14:54:34.955Z,95.53
2018-12-29T14:57:03.371Z,92.35
2018-12-29T14:59:31.768Z,85.07
2018-12-29T15:02:00.409Z,85.00
2018-12-29T15:04:28.819Z,71.20
2018-12-29T15:06:57.225Z,77.97
2018-12-29T15:09:25.873Z,71.92
2018-12-29T15:11:54.561Z,78.90
2018-12-29T15:14:22.977Z,76.28
2018-12-29T15:16:51.895Z,70.52
2018-12-29T15:19:20.655Z,112.95
2018-12-29T15:21:49.067Z,125.18
2018-12-29T15:24:17.485Z,105.97
2018-12-29T15:26:45.880Z,85.45
2018-12-29T15:29:14.898Z,88.72
2018-12-29T15:31:43.342Z,82.05
2018-12-29T15:34:11.737Z,84.32
2018-12-29T15:36:40.409Z,86.57
2018-12-29T15:39:09.079Z,102.65
2018-12-29T15:41:37.474Z,126.25
2018-12-29T15:44:06.455Z,147.60
2018-12-29T15:46:34.885Z,128.15
2018-12-29T15:49:03.641Z,107.32
2018-12-29T15:51:32.039Z,121.10
2018-12-29T15:54:00.452Z,92.88
2018-12-29T15:56:29.224Z,88.97
2018-12-29T15:58:57.948Z,89.83
2018-12-29T16:01:26.379Z,86.85
2018-12-29T16:03:55.117Z,78.33
2018-12-29T16:06:23.830Z,78.65
2018-12-29T16:08:52.493Z,74.50
2018-12-29T16:11:26.228Z,77.55
2018-12-29T16:13:51.910Z,85.25
2018-12-29T16:16:20.306Z,77.32
2018-12-29T16:18:48.703Z,83.10
2018-12-29T16:21:17.396Z,95.45
2018-12-29T16:23:45.786Z,105.43
2018-12-29T16:26:14.521Z,113.85
2018-12-29T16:28:43.634Z,116.55
2018-12-29T16:31:12.044Z,128.80
2018-12-29T16:33:41.737Z,107.03
2018-12-29T16:36:10.419Z,115.65
2018-12-29T16:38:38.833Z,123.07
2018-12-29T16:41:07.507Z,131.07
2018-12-29T16:43:35.903Z,112.70
2018-12-29T16:46:04.328Z,136.50
2018-12-29T16:48:32.756Z,138.10
2018-12-29T16:51:01.529Z,137.12
2018-12-29T16:53:29.939Z,133.72
2018-12-29T16:55:58.338Z,142.82
2018-12-29T16:58:26.728Z,149.50
2018-12-29T17:00:55.416Z,128.50
2018-12-29T17:03:23.806Z,135.88
2018-12-29T17:05:52.219Z,128.70
2018-12-29T17:08:20.615Z,132.47
2018-12-29T17:10:49.540Z,141.18
2018-12-29T17:13:17.947Z,135.88
2018-12-29T17:15:46.345Z,119.75
2018-12-29T17:18:14.756Z,121.92
2018-12-29T17:20:43.150Z,134.65
2018-12-29T17:23:12.551Z,133.95
2018-12-29T17:25:41.493Z,130.60
2018-12-29T17:28:09.890Z,133.93
2018-12-29T17:30:38.615Z,131.18
2018-12-29T17:33:07.301Z,123.25
2018-12-29T17:35:35.987Z,134.87
2018-12-29T17:38:04.673Z,140.90
2018-12-29T17:40:33.066Z,136.15
2018-12-29T17:43:01.477Z,129.57
2018-12-29T17:45:29.871Z,123.42
2018-12-29T17:47:58.802Z,141.37
2018-12-29T17:50:27.694Z,157.60
2018-12-29T17:52:56.092Z,141.65
2018-12-29T17:55:24.758Z,135.75
2018-12-29T17:57:53.972Z,130.43
2018-12-29T18:00:22.543Z,119.40
2018-12-29T18:02:51.237Z,133.45
2018-12-29T18:05:19.649Z,119.35
2018-12-29T18:07:48.047Z,121.45
2018-12-29T18:10:16.526Z,111.35
2018-12-29T18:12:45.257Z,113.68
2018-12-29T18:15:13.658Z,99.80
2018-12-29T18:17:42.327Z,101.62
2018-12-29T18:20:10.737Z,101.85
2018-12-29T18:22:39.130Z,95.97
2018-12-29T18:25:07.861Z,81.85
2018-12-29T18:27:36.269Z,72.53
2018-12-29T18:30:05.615Z,70.87
2018-12-29T18:32:34.006Z,69.22
2018-12-29T18:35:02.413Z,66.10
2018-12-29T18:37:31.084Z,61.88
2018-12-29T18:39:59.865Z,61.68
2018-12-29T18:42:28.561Z,67.82
2018-12-29T18:44:56.969Z,60.58
2018-12-29T18:47:25.374Z,52.53
2018-12-29T18:49:54.116Z,46.85
2018-12-29T18:52:22.959Z,47.80
2018-12-29T18:54:51.350Z,44.65
2018-12-29T18:57:19.758Z,43.90
2018-12-29T18:59:48.443Z,46.85
2018-12-29T19:02:16.832Z,47.45
2018-12-29T19:04:45.505Z,40.98
2018-12-29T19:07:13.911Z,41.73
2018-12-29T19:09:43.148Z,34.48
2018-12-29T19:12:11.592Z,28.38
2018-12-29T19:14:40.009Z,25.12
2018-12-29T19:17:08.418Z,23.42
2018-12-29T19:19:37.412Z,28.92
2018-12-29T19:22:05.821Z,29.48
2018-12-29T19:24:34.228Z,27.32
2018-12-29T19:27:02.633Z,29.85
2018-12-29T19:29:31.042Z,23.30
2018-12-29T19:32:00.024Z,27.13
2018-12-29T19:34:28.708Z,29.67
2018-12-29T19:36:57.383Z,31.25
2018-12-29T19:39:26.153Z,23.42
2018-12-29T19:41:55.041Z,28.15
2018-12-29T19:44:24.677Z,26.07
2018-12-29T19:46:53.781Z,31.17
2018-12-29T19:49:22.466Z,28.45
2018-12-29T19:51:50.861Z,23.75
2018-12-29T19:54:19.839Z,27.80
2018-12-29T19:56:48.526Z,23.25
2018-12-29T19:59:17.266Z,19.40
2018-12-29T20:01:45.668Z,21.73
2018-12-29T20:04:14.786Z,22.00
2018-12-29T20:06:43.191Z,25.57
2018-12-29T20:09:11.585Z,22.85
2018-12-29T20:11:39.985Z,19.37
2018-12-29T20:14:08.707Z,18.67
2018-12-29T20:16:37.118Z,17.15
2018-12-29T20:19:05.506Z,23.35
2018-12-29T20:21:34.156Z,41.85
2018-12-29T20:24:02.570Z,31.42
2018-12-29T20:26:30.960Z,28.35
2018-12-29T20:28:59.698Z,26.60
2018-12-29T20:31:28.344Z,29.32
2018-12-29T20:33:57.067Z,32.78
2018-12-29T20:36:25.478Z,39.53
2018-12-29T20:38:54.137Z,37.98
2018-12-29T20:41:22.532Z,38.58
2018-12-29T20:43:50.938Z,38.13
2018-12-29T20:46:19.680Z,49.75
2018-12-29T20:48:48.365Z,50.80
2018-12-29T20:51:17.052Z,57.73
2018-12-29T20:53:45.458Z,55.85
2018-12-29T20:56:14.086Z,62.40
2018-12-29T20:58:42.481Z,68.80
2018-12-29T21:01:10.885Z,69.60
2018-12-29T21:03:39.519Z,69.27
2018-12-29T21:06:07.927Z,65.05
2018-12-29T21:08:36.866Z,65.20
2018-12-29T21:11:05.244Z,78.47
2018-12-29T21:13:33.637Z,64.32
2018-12-29T21:16:02.273Z,55.43
2018-12-29T21:18:30.665Z,61.40
2018-12-29T21:20:59.145Z,51.35
2018-12-29T21:23:27.539Z,55.83
2018-12-29T21:25:56.184Z,50.17
2018-12-29T21:28:24.589Z,50.88
2018-12-29T21:30:53.261Z,37.50
2018-12-29T21:33:21.656Z,43.68
2018-12-29T21:35:50.352Z,40.80
2018-12-29T21:38:18.778Z,41.13
2018-12-29T21:40:47.401Z,34.67
2018-12-29T21:43:15.823Z,39.58
2018-12-29T21:45:44.559Z,39.92
2018-12-29T21:48:12.951Z,38.08
2018-12-29T21:50:41.536Z,40.75
2018-12-29T21:53:10.217Z,39.13
2018-12-29T21:55:38.612Z,39.60
2018-12-29T21:58:07.017Z,36.05
2018-12-29T22:00:35.753Z,38.00
2018-12-29T22:03:04.387Z,38.92
2018-12-29T22:05:33.123Z,38.25
2018-12-29T22:08:01.605Z,31.50
2018-12-29T22:10:30.288Z,37.38
2018-12-29T22:12:58.692Z,34.53
2018-12-29T22:15:27.098Z,33.20
2018-12-29T22:17:55.771Z,28.83
2018-12-29T22:20:24.156Z,34.55
2018-12-29T22:22:52.562Z,30.65
2018-12-29T22:25:20.954Z,33.10
2018-12-29T22:27:49.589Z,28.10
2018-12-29T22:30:17.993Z,21.70
2018-12-29T22:32:46.559Z,19.98
2018-12-29T22:35:14.949Z,15.93
2018-12-29T22:37:43.354Z,13.53
2018-12-29T22:40:11.741Z,10.25
2018-12-29T22:42:40.127Z,11.20
2018-12-29T22:45:08.978Z,10.60
2018-12-29T22:47:37.368Z,11.18
2018-12-29T22:50:07.290Z,9.73
2018-12-29T22:52:35.690Z,8.73
2018-12-29T22:55:04.530Z,6.70
2018-12-29T22:57:32.919Z,6.15
2018-12-29T23:00:01.535Z,6.75
2018-12-29T23:02:30.085Z,6.55
2018-12-29T23:04:58.520Z,6.28
2018-12-29T23:07:26.924Z,5.50
2018-12-29T23:09:55.574Z,8.33
2018-12-29T23:12:23.960Z,7.45
2018-12-29T23:14:52.359Z,6.70
2018-12-29T23:17:20.985Z,5.53
2018-12-29T23:19:49.708Z,6.55
2018-12-29T23:22:18.396Z,10.53
2018-12-29T23:24:46.784Z,7.87
2018-12-29T23:27:15.191Z,8.60
2018-12-29T23:29:43.836Z,8.13
2018-12-29T23:32:12.538Z,10.72
2018-12-29T23:34:41.121Z,11.93
2018-12-29T23:37:09.807Z,10.20
2018-12-29T23:39:38.215Z,9.35
2018-12-29T23:42:06.858Z,9.88
2018-12-29T23:44:35.541Z,9.30
2018-12-29T23:47:04.036Z,8.78
2018-12-29T23:49:32.919Z,12.33
2018-12-29T23:52:01.683Z,12.40
2018-12-29T23:54:30.330Z,11.10
2018-12-29T23:56:59.115Z,10.32
2018-12-29T23:59:27.525Z,11.73
